Time;durP1;ratioP1;P1;durP2;ratioP2;P2;SDS_P1;SDS_P2;PMS_P1;PMS_P2;Temp;Humidity;BMP_temperature;BMP_pressure;BME280_temperature;BME280_humidity;BME280_pressure;Samples;Min_cycle;Max_cycle;Signal;HPM_P1;HPM_P2
2022/11/27 00:00:58;;;;;;;0.40;0.40;;;15.20;98.10;;;;;;5111919;28;20302;-66
2022/11/27 00:03:46;;;;;;;0.50;0.50;;;15.20;98.20;;;;;;5110811;28;20199;-66
2022/11/27 00:06:36;;;;;;;0.40;0.40;;;15.20;98.10;;;;;;5112074;28;20199;-65
2022/11/27 00:09:25;;;;;;;0.40;0.40;;;15.20;98.10;;;;;;5111897;28;20212;-66
2022/11/27 00:12:13;;;;;;;0.40;0.40;;;15.00;98.10;;;;;;5111284;28;20758;-66
2022/11/27 00:15:02;;;;;;;0.40;0.40;;;15.30;98.30;;;;;;5110963;28;20204;-66
2022/11/27 00:17:50;;;;;;;0.50;0.50;;;15.10;98.30;;;;;;5094620;28;20656;-66
2022/11/27 00:20:38;;;;;;;0.40;0.40;;;15.10;98.30;;;;;;5091123;28;20314;-65
2022/11/27 00:23:26;;;;;;;0.40;0.40;;;15.10;98.40;;;;;;5092423;28;20195;-66
2022/11/27 00:26:15;;;;;;;1.00;1.00;;;15.10;98.40;;;;;;5092110;28;20275;-66
2022/11/27 00:29:04;;;;;;;0.80;0.80;;;15.10;99.70;;;;;;5092365;28;20672;-66
2022/11/27 00:31:52;;;;;;;0.40;0.40;;;15.10;98.50;;;;;;5092184;28;20279;-65
2022/11/27 00:34:40;;;;;;;0.40;0.40;;;15.10;98.40;;;;;;5091661;28;20696;-65
2022/11/27 00:37:28;;;;;;;0.40;0.40;;;15.10;98.30;;;;;;5092648;28;20196;-65
2022/11/27 00:40:16;;;;;;;0.40;0.40;;;15.10;98.30;;;;;;5092241;28;20226;-65
2022/11/27 00:43:06;;;;;;;0.40;0.40;;;15.20;98.30;;;;;;5092585;28;20337;-65
2022/11/27 00:45:54;;;;;;;0.40;0.40;;;15.10;98.30;;;;;;5092553;28;20245;-65
2022/11/27 00:48:42;;;;;;;0.40;0.40;;;15.10;98.20;;;;;;5092780;28;20196;-66
2022/11/27 00:51:30;;;;;;;0.40;0.40;;;15.20;98.20;;;;;;5092133;28;20204;-65
2022/11/27 00:54:19;;;;;;;0.40;0.40;;;15.20;98.20;;;;;;5092436;28;20222;-65
2022/11/27 00:57:09;;;;;;;0.40;0.40;;;15.20;98.20;;;;;;5092548;28;20193;-66
2022/11/27 00:59:59;;;;;;;0.50;0.50;;;15.20;98.10;;;;;;5091612;28;20716;-66
2022/11/27 01:02:47;;;;;;;0.40;0.40;;;15.20;98.10;;;;;;5092275;28;20670;-65
2022/11/27 01:05:36;;;;;;;0.40;0.40;;;15.20;98.10;;;;;;5091664;28;20385;-65
2022/11/27 01:08:24;;;;;;;0.40;0.40;;;15.20;98.10;;;;;;5092250;28;20731;-65
2022/11/27 01:11:14;;;;;;;0.40;0.40;;;15.20;98.10;;;;;;5091961;28;20216;-66
2022/11/27 01:14:06;;;;;;;0.63;0.63;;;15.20;98.10;;;;;;5091673;28;20345;-65
2022/11/27 01:16:55;;;;;;;0.40;0.40;;;15.20;98.10;;;;;;5101965;28;20195;-66
2022/11/27 01:19:43;;;;;;;0.40;0.40;;;15.20;98.10;;;;;;5110968;28;20489;-65
2022/11/27 01:22:31;;;;;;;0.40;0.40;;;15.20;98.10;;;;;;5110499;28;20227;-66
2022/11/27 01:25:19;;;;;;;0.40;0.40;;;15.10;98.10;;;;;;5111364;28;20231;-66
2022/11/27 01:28:13;;;;;;;0.40;0.40;;;15.10;98.10;;;;;;5111232;28;20210;-65
2022/11/27 01:31:04;;;;;;;0.40;0.40;;;15.10;98.10;;;;;;5110212;28;20219;-66
2022/11/27 01:33:55;;;;;;;0.40;0.40;;;15.10;98.10;;;;;;5114804;28;20762;-66
2022/11/27 01:36:44;;;;;;;0.40;0.40;;;15.10;98.20;;;;;;5114877;28;20723;-65
2022/11/27 01:39:32;;;;;;;0.40;0.40;;;15.10;98.30;;;;;;5114516;28;20230;-65
2022/11/27 01:42:20;;;;;;;0.40;0.40;;;15.10;98.30;;;;;;5121106;28;20742;-65
2022/11/27 01:45:10;;;;;;;0.40;0.40;;;15.00;98.30;;;;;;5132489;28;20251;-66
2022/11/27 01:48:01;;;;;;;0.40;0.40;;;15.00;98.20;;;;;;5132925;28;20301;-66
2022/11/27 01:50:51;;;;;;;0.40;0.40;;;15.00;98.30;;;;;;5123864;28;20691;-66
2022/11/27 01:53:39;;;;;;;0.47;0.47;;;15.00;98.20;;;;;;5115300;28;20298;-66
2022/11/27 01:56:28;;;;;;;0.40;0.40;;;15.00;98.20;;;;;;5114542;28;20199;-66
2022/11/27 01:59:18;;;;;;;0.40;0.40;;;15.10;98.20;;;;;;5114912;28;20333;-66
2022/11/27 02:02:06;;;;;;;0.40;0.40;;;15.00;98.10;;;;;;5114628;28;20195;-65
2022/11/27 02:04:55;;;;;;;0.40;0.40;;;15.10;98.10;;;;;;5113774;28;20298;-65
2022/11/27 02:07:44;;;;;;;0.40;0.40;;;15.10;98.10;;;;;;5114573;28;20195;-66
2022/11/27 02:10:44;;;;;;;0.90;0.90;;;15.10;98.00;;;;;;5113482;28;20215;-65
2022/11/27 02:13:37;;;;;;;0.40;0.40;;;15.10;98.00;;;;;;5113922;28;20340;-66
2022/11/27 02:16:31;;;;;;;0.50;0.50;;;15.10;98.00;;;;;;5108802;28;20200;-65
2022/11/27 02:19:32;;;;;;;0.40;0.40;;;15.10;97.90;;;;;;5094419;28;20223;-65
2022/11/27 02:22:34;;;;;;;0.40;0.40;;;15.20;97.90;;;;;;5095405;28;20313;-66
2022/11/27 02:25:34;;;;;;;0.40;0.40;;;15.10;97.90;;;;;;5095812;28;20271;-66
2022/11/27 02:28:39;;;;;;;0.40;0.40;;;15.10;97.90;;;;;;5093961;28;20275;-66
2022/11/27 02:31:36;;;;;;;0.40;0.40;;;15.10;97.90;;;;;;5106882;27;20332;-65
2022/11/27 02:34:28;;;;;;;0.40;0.40;;;15.10;97.70;;;;;;5114409;28;20214;-65
2022/11/27 02:37:21;;;;;;;1.60;1.60;;;15.10;97.80;;;;;;5114942;28;20230;-66
2022/11/27 02:40:12;;;;;;;0.40;0.40;;;15.10;97.80;;;;;;5114723;28;20725;-66
2022/11/27 02:43:05;;;;;;;0.50;0.50;;;15.10;97.80;;;;;;5114765;28;20579;-66
2022/11/27 02:45:55;;;;;;;0.40;0.40;;;15.00;97.60;;;;;;5114867;28;20747;-66
2022/11/27 02:48:48;;;;;;;1.00;1.00;;;15.00;97.60;;;;;;5127834;28;20210;-66
2022/11/27 02:51:40;;;;;;;0.40;0.40;;;15.00;97.70;;;;;;5127608;28;20282;-65
2022/11/27 02:54:30;;;;;;;0.40;0.40;;;14.90;97.70;;;;;;5125911;28;20699;-66
2022/11/27 02:57:19;;;;;;;0.43;0.43;;;15.00;97.80;;;;;;5124654;28;20200;-66
2022/11/27 03:00:10;;;;;;;0.40;0.40;;;14.90;97.70;;;;;;5123187;28;20223;-66
2022/11/27 03:03:03;;;;;;;0.40;0.40;;;14.90;97.70;;;;;;5124364;28;20254;-65
2022/11/27 03:05:57;;;;;;;0.40;0.40;;;14.90;97.70;;;;;;5121103;28;20195;-65
2022/11/27 03:08:52;;;;;;;0.40;0.40;;;14.90;97.90;;;;;;5119317;28;20191;-66
2022/11/27 03:11:40;;;;;;;0.40;0.40;;;14.90;97.90;;;;;;5123189;28;20195;-66
2022/11/27 03:14:28;;;;;;;0.40;0.40;;;14.90;98.00;;;;;;5123564;28;20211;-66
2022/11/27 03:17:26;;;;;;;0.40;0.40;;;14.90;97.90;;;;;;5106887;28;20287;-65
2022/11/27 03:20:19;;;;;;;0.40;0.40;;;14.90;97.90;;;;;;5091899;28;20232;-65
2022/11/27 03:23:08;;;;;;;0.40;0.40;;;14.90;97.90;;;;;;5091965;28;20196;-65
2022/11/27 03:25:56;;;;;;;0.98;0.98;;;14.90;97.90;;;;;;5092076;28;20676;-66
2022/11/27 03:28:45;;;;;;;0.40;0.40;;;15.00;97.80;;;;;;5092142;28;20196;-66
2022/11/27 03:31:33;;;;;;;0.40;0.40;;;15.00;97.80;;;;;;5091514;28;20196;-66
2022/11/27 03:34:22;;;;;;;0.40;0.40;;;14.90;97.80;;;;;;5092022;28;20224;-66
2022/11/27 03:37:10;;;;;;;0.40;0.40;;;15.10;97.70;;;;;;5092475;28;20214;-66
2022/11/27 03:40:00;;;;;;;0.40;0.40;;;15.00;97.70;;;;;;5091733;28;20228;-66
2022/11/27 03:42:58;;;;;;;0.40;0.40;;;15.00;97.60;;;;;;5091924;28;20504;-65
2022/11/27 03:45:56;;;;;;;1.03;1.03;;;15.00;97.50;;;;;;5092878;28;20275;-65
2022/11/27 03:48:53;;;;;;;0.50;0.50;;;15.10;97.60;;;;;;5091793;28;20195;-66
2022/11/27 03:51:51;;;;;;;0.40;0.40;;;15.00;97.50;;;;;;5092064;28;20620;-65
2022/11/27 03:54:46;;;;;;;0.40;0.40;;;15.00;97.40;;;;;;5091359;28;20660;-66
2022/11/27 03:57:40;;;;;;;0.40;0.40;;;15.00;97.40;;;;;;5092246;28;20573;-65
2022/11/27 04:00:32;;;;;;;0.40;0.40;;;15.00;97.30;;;;;;5092011;28;20661;-66
2022/11/27 04:03:25;;;;;;;0.40;0.40;;;15.00;97.40;;;;;;5092043;28;20231;-66
2022/11/27 04:06:13;;;;;;;0.40;0.40;;;15.00;97.30;;;;;;5091848;28;20710;-65
2022/11/27 04:09:01;;;;;;;0.40;0.40;;;14.90;98.20;;;;;;5091500;28;20203;-66
2022/11/27 04:11:49;;;;;;;0.40;0.40;;;14.90;97.20;;;;;;5091867;28;20689;-65
2022/11/27 04:14:38;;;;;;;0.40;0.40;;;14.90;97.20;;;;;;5092065;28;20291;-66
2022/11/27 04:17:27;;;;;;;0.40;0.40;;;14.90;97.30;;;;;;5091505;28;20567;-66
2022/11/27 04:20:15;;;;;;;0.40;0.40;;;14.90;97.10;;;;;;5115563;22;20231;-63
2022/11/27 04:23:04;;;;;;;0.40;0.40;;;14.90;97.10;;;;;;5091249;28;20642;-62
2022/11/27 04:25:52;;;;;;;0.40;0.40;;;14.90;97.20;;;;;;5090465;28;20204;-62
2022/11/27 04:28:40;;;;;;;0.50;0.50;;;14.80;97.20;;;;;;5090640;28;20277;-62
2022/11/27 04:31:30;;;;;;;0.40;0.40;;;14.80;97.20;;;;;;5070620;28;20240;-62
2022/11/27 04:34:18;;;;;;;0.40;0.40;;;14.80;97.30;;;;;;5071623;28;20226;-61
2022/11/27 04:37:06;;;;;;;0.40;0.40;;;14.80;97.30;;;;;;5072112;28;20275;-62
2022/11/27 04:39:54;;;;;;;0.40;0.40;;;14.80;97.20;;;;;;5104602;28;20275;-62
2022/11/27 04:42:42;;;;;;;0.40;0.40;;;14.80;97.30;;;;;;5111943;28;20574;-62
2022/11/27 04:45:30;;;;;;;0.40;0.40;;;14.80;97.50;;;;;;5111558;28;20632;-62
2022/11/27 04:48:19;;;;;;;0.40;0.40;;;14.80;97.50;;;;;;5110820;28;20200;-62
2022/11/27 04:51:07;;;;;;;0.40;0.40;;;14.90;97.40;;;;;;5110944;28;20683;-62
2022/11/27 04:53:55;;;;;;;0.40;0.40;;;14.90;97.40;;;;;;5111355;28;20276;-62
2022/11/27 04:56:43;;;;;;;0.40;0.40;;;14.90;97.30;;;;;;5111103;28;20341;-62
2022/11/27 04:59:32;;;;;;;0.40;0.40;;;14.90;97.30;;;;;;5110882;28;20301;-62
2022/11/27 05:02:20;;;;;;;0.40;0.40;;;15.50;97.50;;;;;;5111503;28;20690;-62
2022/11/27 05:05:09;;;;;;;0.40;0.40;;;15.00;97.10;;;;;;5110682;28;20198;-62
2022/11/27 05:07:57;;;;;;;0.40;0.40;;;14.90;97.20;;;;;;5114888;28;20641;-62
2022/11/27 05:10:46;;;;;;;0.60;0.60;;;15.00;97.00;;;;;;5114023;28;20714;-62
2022/11/27 05:13:34;;;;;;;0.40;0.40;;;14.90;96.70;;;;;;5115199;28;20286;-62
2022/11/27 05:16:22;;;;;;;0.40;0.40;;;14.90;97.00;;;;;;5109212;28;20700;-62
2022/11/27 05:19:11;;;;;;;0.40;0.40;;;14.90;96.80;;;;;;5094124;28;20227;-62
2022/11/27 05:22:01;;;;;;;0.40;0.40;;;14.90;97.00;;;;;;5094252;28;20317;-62
2022/11/27 05:24:49;;;;;;;0.40;0.40;;;15.00;96.80;;;;;;5094602;28;20224;-63
2022/11/27 05:27:37;;;;;;;0.40;0.40;;;15.00;96.70;;;;;;5095478;28;20301;-62
2022/11/27 05:30:25;;;;;;;0.40;0.40;;;14.90;96.70;;;;;;5093946;28;20227;-62
2022/11/27 05:33:14;;;;;;;0.80;0.80;;;15.10;96.90;;;;;;5094611;28;20200;-62
2022/11/27 05:36:02;;;;;;;0.40;0.40;;;14.90;96.50;;;;;;5094649;28;20294;-62
2022/11/27 05:38:51;;;;;;;0.40;0.40;;;14.90;96.80;;;;;;5093998;28;20204;-62
2022/11/27 05:41:41;;;;;;;0.97;0.97;;;14.90;96.50;;;;;;5094501;28;20793;-63
2022/11/27 05:44:29;;;;;;;0.40;0.40;;;14.90;96.60;;;;;;5094042;28;20192;-62
2022/11/27 05:47:17;;;;;;;0.40;0.40;;;14.90;96.60;;;;;;5093635;28;20735;-63
2022/11/27 05:50:07;;;;;;;0.50;0.50;;;14.80;96.40;;;;;;5093997;28;20219;-62
2022/11/27 05:52:55;;;;;;;0.40;0.40;;;14.80;96.60;;;;;;5094486;28;20208;-63
2022/11/27 05:55:44;;;;;;;0.40;0.40;;;14.80;96.50;;;;;;5093518;28;20582;-63
2022/11/27 05:58:33;;;;;;;0.40;0.40;;;14.80;96.50;;;;;;5093917;28;20282;-62
2022/11/27 06:01:21;;;;;;;2.30;2.20;;;14.70;96.50;;;;;;5093063;28;20302;-63
2022/11/27 06:04:09;;;;;;;0.40;0.40;;;14.70;96.50;;;;;;5093579;28;20204;-62
2022/11/27 06:06:57;;;;;;;0.40;0.40;;;14.70;96.50;;;;;;5093598;28;20345;-62
2022/11/27 06:09:45;;;;;;;0.40;0.40;;;14.70;96.50;;;;;;5092480;28;20228;-62
2022/11/27 06:12:35;;;;;;;2.10;2.00;;;14.60;96.60;;;;;;5094022;28;20338;-62
2022/11/27 06:15:23;;;;;;;0.40;0.40;;;14.60;96.50;;;;;;5093176;28;20216;-62
2022/11/27 06:18:12;;;;;;;0.40;0.40;;;14.60;96.70;;;;;;5112523;28;20191;-62
2022/11/27 06:21:00;;;;;;;0.40;0.40;;;14.60;96.50;;;;;;5112781;28;20230;-62
2022/11/27 06:23:48;;;;;;;0.50;0.50;;;14.60;96.50;;;;;;5113670;28;20671;-62
2022/11/27 06:26:36;;;;;;;0.40;0.40;;;14.60;96.30;;;;;;5113448;28;20270;-62
2022/11/27 06:29:25;;;;;;;0.40;0.40;;;14.60;96.60;;;;;;5112731;28;20276;-62
2022/11/27 06:32:13;;;;;;;2.57;2.43;;;14.60;96.50;;;;;;5112616;28;20191;-62
2022/11/27 06:35:02;;;;;;;0.40;0.40;;;14.60;96.40;;;;;;5113611;28;20206;-62
2022/11/27 06:37:50;;;;;;;0.40;0.40;;;14.60;96.60;;;;;;5112519;28;20202;-62
2022/11/27 06:40:38;;;;;;;0.40;0.40;;;14.70;96.70;;;;;;5112220;28;20754;-62
2022/11/27 06:43:26;;;;;;;0.40;0.40;;;14.60;96.50;;;;;;5113756;28;20286;-62
2022/11/27 06:46:21;;;;;;;0.40;0.40;;;14.60;96.40;;;;;;5112974;28;20191;-62
2022/11/27 06:49:09;;;;;;;0.50;0.50;;;14.60;96.30;;;;;;5112864;28;20210;-62
2022/11/27 06:51:57;;;;;;;0.40;0.40;;;14.60;96.40;;;;;;5113524;28;20530;-62
2022/11/27 06:54:45;;;;;;;5.60;4.30;;;14.60;96.30;;;;;;5112121;28;20196;-62
2022/11/27 06:57:33;;;;;;;0.40;0.40;;;14.60;96.10;;;;;;5113215;28;20296;-62
2022/11/27 07:00:22;;;;;;;0.60;0.60;;;14.60;96.10;;;;;;5112995;28;20217;-62
2022/11/27 07:03:11;;;;;;;0.40;0.40;;;14.60;96.70;;;;;;5072060;28;20288;-62
2022/11/27 07:06:00;;;;;;;0.40;0.40;;;14.70;96.10;;;;;;5071404;28;20196;-62
2022/11/27 07:08:48;;;;;;;0.40;0.40;;;14.60;96.20;;;;;;5072465;28;20970;-62
2022/11/27 07:11:38;;;;;;;1.33;1.33;;;14.50;96.10;;;;;;5071736;28;20427;-62
2022/11/27 07:14:26;;;;;;;0.40;0.40;;;14.50;95.80;;;;;;5071119;28;20204;-62
2022/11/27 07:17:14;;;;;;;0.40;0.40;;;14.50;96.10;;;;;;5096519;28;20225;-62
2022/11/27 07:20:04;;;;;;;0.40;0.40;;;14.50;96.00;;;;;;5111492;28;20456;-62
2022/11/27 07:22:52;;;;;;;2.50;2.30;;;14.40;96.00;;;;;;5111172;28;20233;-62
2022/11/27 07:25:40;;;;;;;0.40;0.40;;;14.50;96.50;;;;;;5111562;28;20278;-62
2022/11/27 07:28:28;;;;;;;0.40;0.40;;;14.50;96.10;;;;;;5112248;28;20278;-62
2022/11/27 07:31:19;;;;;;;0.40;0.40;;;14.50;95.90;;;;;;5111937;28;20298;-62
2022/11/27 07:34:07;;;;;;;0.63;0.63;;;14.40;96.30;;;;;;5111566;28;20266;-62
2022/11/27 07:37:05;;;;;;;0.40;0.40;;;14.50;96.50;;;;;;5111320;28;20207;-62
2022/11/27 07:39:53;;;;;;;0.40;0.40;;;14.50;96.60;;;;;;5111455;28;20590;-62
2022/11/27 07:42:50;;;;;;;0.80;0.80;;;14.50;96.30;;;;;;5112002;28;20202;-62
2022/11/27 07:45:38;;;;;;;0.40;0.40;;;14.50;96.20;;;;;;5111554;28;20262;-62
2022/11/27 07:48:26;;;;;;;0.40;0.40;;;14.60;96.70;;;;;;5110923;28;20941;-62
2022/11/27 07:51:17;;;;;;;0.40;0.40;;;14.60;96.30;;;;;;5111239;28;20215;-62
2022/11/27 07:54:07;;;;;;;0.40;0.40;;;14.60;96.00;;;;;;5112658;28;20209;-62
2022/11/27 07:56:55;;;;;;;0.40;0.40;;;14.60;96.10;;;;;;5111919;28;20625;-62
2022/11/27 07:59:43;;;;;;;0.40;0.40;;;14.70;96.00;;;;;;5111232;28;20359;-62
2022/11/27 08:02:34;;;;;;;0.40;0.40;;;14.70;95.70;;;;;;5112736;28;20203;-62
2022/11/27 08:05:22;;;;;;;0.40;0.40;;;14.60;96.00;;;;;;5111702;28;20691;-62
2022/11/27 08:08:10;;;;;;;0.80;0.80;;;14.70;95.80;;;;;;5111428;28;20204;-63
2022/11/27 08:11:00;;;;;;;0.40;0.40;;;14.70;96.00;;;;;;5111870;28;20223;-62
2022/11/27 08:13:48;;;;;;;0.40;0.40;;;14.70;95.80;;;;;;5111271;28;20206;-62
2022/11/27 08:16:36;;;;;;;0.40;0.40;;;14.70;95.80;;;;;;5104829;28;20713;-62
2022/11/27 08:19:24;;;;;;;0.77;0.77;;;14.70;99.50;;;;;;5091630;28;20741;-62
2022/11/27 08:22:13;;;;;;;0.40;0.40;;;14.70;95.90;;;;;;5092291;28;20712;-61
2022/11/27 08:25:01;;;;;;;0.40;0.40;;;14.70;95.80;;;;;;5091069;28;20578;-62
2022/11/27 08:27:50;;;;;;;0.40;0.40;;;14.70;95.80;;;;;;5092533;28;20253;-62
2022/11/27 08:30:38;;;;;;;0.40;0.40;;;14.70;95.40;;;;;;5092353;28;20531;-62
2022/11/27 08:33:27;;;;;;;0.40;0.40;;;14.70;95.40;;;;;;5093373;28;20204;-62
2022/11/27 08:36:15;;;;;;;0.40;0.40;;;14.60;95.50;;;;;;5103856;28;20223;-61
2022/11/27 08:39:05;;;;;;;0.40;0.40;;;14.60;95.50;;;;;;5110164;28;20228;-60
2022/11/27 08:41:54;;;;;;;0.40;0.40;;;14.60;95.50;;;;;;5113300;28;20690;-62
2022/11/27 08:44:43;;;;;;;0.40;0.40;;;14.60;95.60;;;;;;5098973;28;20200;-62
2022/11/27 08:47:31;;;;;;;0.40;0.40;;;14.60;95.70;;;;;;5098641;28;20691;-63
2022/11/27 08:50:19;;;;;;;0.40;0.40;;;14.60;95.60;;;;;;5096690;28;20226;-63
2022/11/27 08:53:07;;;;;;;0.40;0.40;;;14.60;95.60;;;;;;5096582;28;20207;-63
2022/11/27 08:55:55;;;;;;;0.40;0.40;;;14.70;95.50;;;;;;5095957;28;20195;-64
2022/11/27 08:58:44;;;;;;;0.40;0.40;;;14.50;95.50;;;;;;5095770;28;20231;-63
2022/11/27 09:01:34;;;;;;;0.40;0.40;;;14.50;95.50;;;;;;5095137;28;20305;-63
2022/11/27 09:04:22;;;;;;;0.40;0.40;;;14.50;95.70;;;;;;5094942;28;20698;-63
2022/11/27 09:07:13;;;;;;;0.40;0.40;;;14.50;95.70;;;;;;5095019;28;20429;-63
2022/11/27 09:10:01;;;;;;;0.40;0.40;;;14.50;95.90;;;;;;5094629;28;20215;-63
2022/11/27 09:12:50;;;;;;;0.40;0.40;;;14.60;95.80;;;;;;5095363;28;20196;-63
2022/11/27 09:15:38;;;;;;;0.40;0.40;;;14.50;95.50;;;;;;5094631;28;20278;-62
2022/11/27 09:18:27;;;;;;;0.40;0.40;;;14.60;95.70;;;;;;5074561;28;20297;-62
2022/11/27 09:21:17;;;;;;;0.40;0.40;;;14.60;95.60;;;;;;5073541;28;20273;-62
2022/11/27 09:24:06;;;;;;;0.40;0.40;;;14.60;95.90;;;;;;5074575;28;20279;-62
2022/11/27 09:26:54;;;;;;;0.40;0.40;;;14.60;95.90;;;;;;5074527;28;20266;-62
2022/11/27 09:29:42;;;;;;;0.40;0.40;;;14.70;95.80;;;;;;5073267;28;20221;-62
2022/11/27 09:32:30;;;;;;;0.40;0.40;;;14.60;95.70;;;;;;5074359;28;20419;-63
2022/11/27 09:35:19;;;;;;;0.40;0.40;;;14.70;95.80;;;;;;5073380;28;20456;-63
2022/11/27 09:38:07;;;;;;;0.40;0.40;;;14.70;95.90;;;;;;5074135;28;20216;-63
2022/11/27 09:41:01;;;;;;;0.50;0.50;;;14.70;95.80;;;;;;5072658;28;20295;-63
2022/11/27 09:43:55;;;;;;;1.90;1.80;;;14.70;95.80;;;;;;5072887;28;20201;-63
2022/11/27 09:46:44;;;;;;;0.40;0.40;;;14.70;95.70;;;;;;5072774;28;20701;-63
2022/11/27 09:49:36;;;;;;;0.40;0.40;;;14.80;95.70;;;;;;5073992;28;20668;-63
2022/11/27 09:52:34;;;;;;;0.40;0.40;;;14.70;95.60;;;;;;5072550;28;20932;-63
2022/11/27 09:55:26;;;;;;;0.73;0.73;;;14.70;95.50;;;;;;5073946;28;20424;-63
2022/11/27 09:58:17;;;;;;;0.40;0.40;;;14.70;95.60;;;;;;5073590;28;20216;-63
2022/11/27 10:01:13;;;;;;;0.40;0.40;;;14.70;95.70;;;;;;5073299;28;20333;-63
2022/11/27 10:04:01;;;;;;;0.40;0.40;;;14.70;95.60;;;;;;5073735;28;20703;-63
2022/11/27 10:07:06;;;;;;;0.40;0.40;;;14.70;95.40;;;;;;5072717;28;20209;-63
2022/11/27 10:10:21;;;;;;;0.40;0.40;;;14.70;95.70;;;;;;5072212;28;20635;-63
2022/11/27 10:13:22;;;;;;;0.40;0.40;;;14.70;95.50;;;;;;5072978;28;20197;-63
2022/11/27 10:16:19;;;;;;;0.40;0.40;;;14.70;95.60;;;;;;5079028;28;20317;-63
2022/11/27 10:19:18;;;;;;;0.40;0.40;;;14.70;95.70;;;;;;5112766;28;20833;-62
2022/11/27 10:22:15;;;;;;;0.40;0.40;;;14.60;95.60;;;;;;5104974;22;20734;-67
2022/11/27 10:25:16;;;;;;;0.40;0.40;;;14.70;95.70;;;;;;5075799;28;20196;-64
2022/11/27 10:28:19;;;;;;;0.40;0.40;;;14.60;95.80;;;;;;5074700;28;20437;-65
2022/11/27 10:31:12;;;;;;;0.40;0.40;;;14.70;96.20;;;;;;5074453;28;20534;-63
2022/11/27 10:34:03;;;;;;;0.40;0.40;;;14.70;96.10;;;;;;5074982;28;20579;-63
2022/11/27 10:36:53;;;;;;;0.40;0.40;;;14.70;96.00;;;;;;5076003;28;20516;-62
2022/11/27 10:39:47;;;;;;;0.40;0.40;;;14.90;96.20;;;;;;5075303;28;20439;-63
2022/11/27 10:42:43;;;;;;;0.40;0.40;;;14.80;96.00;;;;;;5074946;28;20839;-63
2022/11/27 10:45:38;;;;;;;0.40;0.40;;;14.80;95.90;;;;;;5074457;28;20203;-68
2022/11/27 10:48:28;;;;;;;0.40;0.40;;;14.90;96.00;;;;;;5074918;28;20197;-62
2022/11/27 10:51:21;;;;;;;0.40;0.40;;;14.90;95.90;;;;;;5075417;28;20228;-61
2022/11/27 10:54:15;;;;;;;0.93;0.93;;;14.90;95.80;;;;;;5075741;28;20582;-62
2022/11/27 10:57:23;;;;;;;0.40;0.40;;;14.90;95.80;;;;;;5074651;28;20674;-63
2022/11/27 11:00:19;;;;;;;0.40;0.40;;;15.00;95.90;;;;;;5074803;28;20560;-63
2022/11/27 11:03:15;;;;;;;0.40;0.40;;;15.00;95.60;;;;;;5074850;28;20284;-61
2022/11/27 11:06:06;;;;;;;0.40;0.40;;;15.00;95.70;;;;;;5074394;28;20263;-62
2022/11/27 11:09:16;;;;;;;0.40;0.40;;;15.00;95.80;;;;;;5074194;28;20572;-63
2022/11/27 11:12:09;;;;;;;0.40;0.40;;;15.00;95.80;;;;;;5074512;28;20224;-63
2022/11/27 11:14:58;;;;;;;0.40;0.40;;;15.10;95.80;;;;;;5075410;28;20247;-61
2022/11/27 11:17:48;;;;;;;0.40;0.40;;;15.10;95.80;;;;;;5075457;28;20220;-63
2022/11/27 11:20:36;;;;;;;0.40;0.40;;;15.10;95.70;;;;;;5074635;28;20223;-61
2022/11/27 11:23:35;;;;;;;0.40;0.40;;;15.10;95.70;;;;;;5074753;28;20205;-62
2022/11/27 11:26:27;;;;;;;0.40;0.40;;;15.10;95.70;;;;;;5073993;28;20300;-64
2022/11/27 11:29:30;;;;;;;0.40;0.40;;;15.10;95.70;;;;;;5073456;28;20271;-63
2022/11/27 11:32:25;;;;;;;0.40;0.40;;;15.10;95.60;;;;;;5074893;28;20257;-65
2022/11/27 11:35:27;;;;;;;0.40;0.40;;;15.10;95.70;;;;;;5074415;28;20659;-63
2022/11/27 11:38:18;;;;;;;0.40;0.40;;;15.10;95.60;;;;;;5073560;28;20281;-62
2022/11/27 11:41:08;;;;;;;0.40;0.40;;;15.10;95.70;;;;;;5073618;28;20350;-62
2022/11/27 11:43:59;;;;;;;0.50;0.50;;;15.10;95.70;;;;;;5073545;28;20232;-63
2022/11/27 11:46:52;;;;;;;0.40;0.40;;;15.10;95.70;;;;;;5074790;28;20200;-65
2022/11/27 11:49:40;;;;;;;0.40;0.40;;;15.10;95.70;;;;;;5073265;28;20279;-62
2022/11/27 11:52:43;;;;;;;0.40;0.40;;;15.10;95.70;;;;;;5073710;28;20751;-62
2022/11/27 11:55:37;;;;;;;0.40;0.40;;;15.10;95.70;;;;;;5074786;28;20227;-63
2022/11/27 11:58:42;;;;;;;0.40;0.40;;;15.10;95.70;;;;;;5073388;28;20316;-61
2022/11/27 12:01:47;;;;;;;0.40;0.40;;;15.10;95.80;;;;;;5074732;28;20220;-64
2022/11/27 12:05:02;;;;;;;0.40;0.40;;;15.00;95.70;;;;;;5073625;28;20200;-64
2022/11/27 12:08:20;;;;;;;0.40;0.40;;;15.00;95.80;;;;;;5073050;28;20208;-62
2022/11/27 12:11:13;;;;;;;0.40;0.40;;;15.10;95.90;;;;;;5072915;28;20227;-62
2022/11/27 12:14:15;;;;;;;0.40;0.40;;;15.10;96.20;;;;;;5073079;28;20688;-63
2022/11/27 12:17:17;;;;;;;0.40;0.40;;;15.20;96.20;;;;;;5082647;28;20239;-68
2022/11/27 12:20:16;;;;;;;0.40;0.40;;;15.30;96.20;;;;;;5093593;28;20277;-64
2022/11/27 12:23:30;;;;;;;0.40;0.40;;;15.40;96.10;;;;;;5094295;28;20259;-62
2022/11/27 12:26:30;;;;;;;0.40;0.40;;;15.50;96.10;;;;;;5094796;28;20688;-62
2022/11/27 12:29:38;;;;;;;0.40;0.40;;;15.50;96.00;;;;;;5094943;28;20196;-65
2022/11/27 12:33:03;;;;;;;0.40;0.40;;;15.60;96.00;;;;;;5093838;28;20306;-62
2022/11/27 12:35:58;;;;;;;0.40;0.40;;;15.70;95.90;;;;;;5094064;28;20227;-62
2022/11/27 12:39:02;;;;;;;0.40;0.40;;;15.70;95.90;;;;;;5094238;28;20220;-63
2022/11/27 12:42:01;;;;;;;0.40;0.40;;;15.70;95.70;;;;;;5094139;28;20219;-61
2022/11/27 12:44:58;;;;;;;0.40;0.40;;;15.70;95.60;;;;;;5095007;28;20196;-64
2022/11/27 12:47:49;;;;;;;0.40;0.40;;;15.80;95.50;;;;;;5093997;28;20283;-62
2022/11/27 12:50:41;;;;;;;0.40;0.40;;;15.80;95.40;;;;;;5093663;28;20299;-62
2022/11/27 12:53:36;;;;;;;0.40;0.40;;;15.80;95.40;;;;;;5093169;28;20341;-62
2022/11/27 12:56:30;;;;;;;0.40;0.40;;;15.80;95.30;;;;;;5094014;28;20203;-63
2022/11/27 12:59:24;;;;;;;0.40;0.40;;;15.80;95.30;;;;;;5093503;28;20234;-65
2022/11/27 13:02:25;;;;;;;0.40;0.40;;;15.80;95.30;;;;;;5093632;28;20216;-62
2022/11/27 13:05:19;;;;;;;0.40;0.40;;;15.80;95.30;;;;;;5093690;28;20204;-62
2022/11/27 13:08:13;;;;;;;0.50;0.50;;;15.70;95.20;;;;;;5093548;28;20214;-62
2022/11/27 13:11:06;;;;;;;0.40;0.40;;;15.70;95.10;;;;;;5093874;28;20220;-65
2022/11/27 13:14:02;;;;;;;0.40;0.40;;;15.70;95.20;;;;;;5092845;28;20478;-63
2022/11/27 13:16:55;;;;;;;0.40;0.40;;;15.70;95.10;;;;;;5075822;28;20689;-62
2022/11/27 13:19:45;;;;;;;0.40;0.40;;;15.60;95.10;;;;;;5052955;28;20217;-62
2022/11/27 13:22:35;;;;;;;0.40;0.40;;;15.60;95.00;;;;;;5053793;28;20201;-61
2022/11/27 13:25:23;;;;;;;0.40;0.40;;;15.60;95.10;;;;;;5053538;28;20737;-61
2022/11/27 13:28:21;;;;;;;0.40;0.40;;;15.60;95.10;;;;;;5055023;28;20647;-68
2022/11/27 13:31:18;;;;;;;0.40;0.40;;;15.60;95.20;;;;;;5056503;28;20654;-61
2022/11/27 13:34:11;;;;;;;0.40;0.40;;;15.50;95.10;;;;;;5057277;28;20256;-63
2022/11/27 13:37:02;;;;;;;0.40;0.40;;;15.50;95.10;;;;;;5056914;28;20227;-63
2022/11/27 13:39:50;;;;;;;0.40;0.40;;;15.50;95.10;;;;;;5056764;28;20759;-61
2022/11/27 13:42:44;;;;;;;0.40;0.40;;;15.50;95.20;;;;;;5056854;28;20197;-63
2022/11/27 13:45:35;;;;;;;0.40;0.40;;;15.50;95.20;;;;;;5056630;28;20684;-61
2022/11/27 13:48:32;;;;;;;0.50;0.50;;;15.50;95.30;;;;;;5057017;28;20201;-62
2022/11/27 13:51:26;;;;;;;0.40;0.40;;;15.40;95.30;;;;;;5056448;28;20244;-65
2022/11/27 13:54:18;;;;;;;0.40;0.40;;;15.40;95.20;;;;;;5056889;28;20564;-65
2022/11/27 13:57:14;;;;;;;0.40;0.40;;;15.40;95.30;;;;;;5056796;28;20209;-64
2022/11/27 14:00:06;;;;;;;0.40;0.40;;;15.40;95.10;;;;;;5055464;28;20229;-61
2022/11/27 14:02:54;;;;;;;0.40;0.40;;;15.40;95.40;;;;;;5056116;28;20217;-61
2022/11/27 14:05:44;;;;;;;0.40;0.40;;;15.30;95.30;;;;;;5056397;28;20284;-61
2022/11/27 14:08:35;;;;;;;0.40;0.40;;;15.30;95.30;;;;;;5055827;28;20201;-62
2022/11/27 14:11:37;;;;;;;0.40;0.40;;;15.30;95.40;;;;;;5056070;28;20360;-63
2022/11/27 14:14:28;;;;;;;0.40;0.40;;;15.30;95.30;;;;;;5056767;28;20274;-62
2022/11/27 14:17:26;;;;;;;0.40;0.40;;;15.30;95.30;;;;;;5081237;28;20298;-60
2022/11/27 14:20:25;;;;;;;0.40;0.40;;;15.20;95.40;;;;;;5095042;28;20298;-64
2022/11/27 14:23:26;;;;;;;0.40;0.40;;;15.30;95.50;;;;;;5096469;28;20195;-62
2022/11/27 14:26:21;;;;;;;0.40;0.40;;;15.20;95.50;;;;;;5096858;28;20215;-61
2022/11/27 14:29:11;;;;;;;0.40;0.40;;;15.20;95.50;;;;;;5096515;28;20329;-62
2022/11/27 14:32:01;;;;;;;0.40;0.40;;;15.20;95.50;;;;;;5095907;28;20230;-62
2022/11/27 14:34:50;;;;;;;0.50;0.50;;;15.20;95.40;;;;;;5095480;28;20196;-61
2022/11/27 14:37:38;;;;;;;0.40;0.40;;;15.20;95.50;;;;;;5095434;28;20211;-61
2022/11/27 14:40:28;;;;;;;0.40;0.40;;;15.20;95.40;;;;;;5094975;28;20659;-62
2022/11/27 14:43:17;;;;;;;0.40;0.40;;;15.20;95.40;;;;;;5095258;28;20214;-61
2022/11/27 14:46:08;;;;;;;0.40;0.40;;;15.20;95.40;;;;;;5095430;28;20622;-63
2022/11/27 14:48:56;;;;;;;0.40;0.40;;;15.20;95.30;;;;;;5096074;28;20228;-64
2022/11/27 14:51:44;;;;;;;0.40;0.40;;;15.20;95.40;;;;;;5095512;28;20216;-63
2022/11/27 14:54:36;;;;;;;0.40;0.40;;;15.20;95.30;;;;;;5095113;28;20279;-63